createdAt,value
2018-04-06T00:00:18.080Z,4.07
2018-04-06T00:02:43.935Z,4.10
2018-04-06T00:05:09.784Z,4.05
2018-04-06T00:07:35.650Z,4.17
2018-04-06T00:10:01.488Z,4.57
2018-04-06T00:12:27.367Z,4.19
2018-04-06T00:14:53.200Z,4.19
2018-04-06T00:17:19.064Z,4.45
2018-04-06T00:19:44.913Z,4.66
2018-04-06T00:22:10.759Z,4.48
2018-04-06T00:24:36.658Z,3.97
2018-04-06T00:27:02.507Z,3.89
2018-04-06T00:29:28.378Z,3.76
2018-04-06T00:31:54.216Z,3.57
2018-04-06T00:34:20.082Z,3.48
2018-04-06T00:36:45.969Z,3.52
2018-04-06T00:39:11.831Z,3.48
2018-04-06T00:41:37.705Z,3.59
2018-04-06T00:44:03.565Z,3.58
2018-04-06T00:46:29.417Z,3.45
2018-04-06T00:48:55.266Z,3.47
2018-04-06T00:51:21.645Z,3.46
2018-04-06T00:53:47.536Z,3.43
2018-04-06T00:56:13.399Z,3.46
2018-04-06T00:58:39.251Z,3.47
2018-04-06T01:01:05.110Z,3.44
2018-04-06T01:03:30.943Z,3.46
2018-04-06T01:05:56.816Z,3.51
2018-04-06T01:08:22.689Z,3.42
2018-04-06T01:10:48.529Z,3.41
2018-04-06T01:13:14.397Z,3.44
2018-04-06T01:15:40.233Z,3.44
2018-04-06T01:18:06.114Z,3.30
2018-04-06T01:20:31.970Z,3.29
2018-04-06T01:22:57.816Z,3.30
2018-04-06T01:25:23.689Z,3.21
2018-04-06T01:27:49.589Z,3.24
2018-04-06T01:30:15.445Z,3.24
2018-04-06T01:32:41.294Z,3.38
2018-04-06T01:35:07.169Z,3.40
2018-04-06T01:37:33.023Z,3.30
2018-04-06T01:39:58.882Z,3.33
2018-04-06T01:42:24.721Z,3.25
2018-04-06T01:44:50.612Z,3.21
2018-04-06T01:47:16.451Z,3.25
2018-04-06T01:49:42.313Z,3.32
2018-04-06T01:52:08.163Z,3.20
2018-04-06T01:54:34.007Z,3.26
2018-04-06T01:56:59.854Z,3.23
2018-04-06T01:59:25.720Z,3.14
2018-04-06T02:01:51.569Z,3.14
2018-04-06T02:04:17.417Z,3.14
2018-04-06T02:06:43.251Z,3.00
2018-04-06T02:09:09.087Z,2.96
2018-04-06T02:11:34.960Z,2.95
2018-04-06T02:14:00.793Z,2.95
2018-04-06T02:16:26.665Z,2.99
2018-04-06T02:18:52.511Z,3.03
2018-04-06T02:21:18.366Z,3.12
2018-04-06T02:23:44.210Z,3.09
2018-04-06T02:26:10.035Z,3.09
2018-04-06T02:28:35.875Z,3.11
2018-04-06T02:31:01.748Z,3.13
2018-04-06T02:33:27.625Z,3.08
2018-04-06T02:35:53.470Z,3.00
2018-04-06T02:38:19.312Z,2.95
2018-04-06T02:40:45.186Z,2.92
2018-04-06T02:43:11.032Z,2.92
2018-04-06T02:45:36.876Z,2.88
2018-04-06T02:48:02.748Z,2.94
2018-04-06T02:50:28.621Z,2.93
2018-04-06T02:52:54.463Z,2.88
2018-04-06T02:55:20.350Z,2.81
2018-04-06T02:57:46.206Z,2.83
2018-04-06T03:00:12.059Z,2.85
2018-04-06T03:02:37.897Z,2.82
2018-04-06T03:05:03.788Z,2.81
2018-04-06T03:07:29.649Z,2.74
2018-04-06T03:09:55.497Z,2.61
2018-04-06T03:12:21.368Z,2.54
2018-04-06T03:14:47.196Z,2.54
2018-04-06T03:17:13.051Z,2.62
2018-04-06T03:19:38.927Z,2.69
2018-04-06T03:22:04.783Z,2.75
2018-04-06T03:24:30.623Z,2.84
2018-04-06T03:26:56.504Z,2.89
2018-04-06T03:29:22.359Z,2.88
2018-04-06T03:31:48.225Z,2.82
2018-04-06T03:34:14.108Z,2.70
2018-04-06T03:36:39.942Z,2.45
2018-04-06T03:39:05.783Z,2.27
2018-04-06T03:41:31.630Z,2.18
2018-04-06T03:43:57.471Z,2.08
2018-04-06T03:46:23.303Z,1.93
2018-04-06T03:48:49.163Z,1.90
2018-04-06T03:51:15.028Z,1.87
2018-04-06T03:53:40.872Z,1.75
2018-04-06T03:56:06.726Z,1.75
2018-04-06T03:58:32.594Z,1.74
2018-04-06T04:00:58.465Z,1.65
2018-04-06T04:03:24.297Z,1.64
2018-04-06T04:05:50.132Z,1.61
2018-04-06T04:08:15.997Z,1.65
2018-04-06T04:10:41.861Z,1.63
2018-04-06T04:13:07.710Z,1.65
2018-04-06T04:15:33.683Z,1.69
2018-04-06T04:17:59.541Z,1.59
2018-04-06T04:20:25.379Z,1.53
2018-04-06T04:22:52.053Z,1.51
2018-04-06T04:25:17.905Z,1.45
2018-04-06T04:27:43.762Z,1.40
2018-04-06T04:30:09.611Z,1.44
2018-04-06T04:32:35.463Z,1.46
2018-04-06T04:35:01.316Z,1.50
2018-04-06T04:37:27.167Z,1.46
2018-04-06T04:39:53.030Z,1.48
2018-04-06T04:45:11.660Z,1.47
2018-04-06T04:47:37.639Z,1.47
2018-04-06T04:50:03.484Z,1.52
2018-04-06T04:52:29.333Z,1.54
2018-04-06T04:54:55.188Z,1.67
2018-04-06T04:57:21.027Z,1.65
2018-04-06T04:59:46.908Z,1.68
2018-04-06T05:02:12.755Z,1.69
2018-04-06T05:04:38.608Z,1.76
2018-04-06T05:07:04.488Z,1.71
2018-04-06T05:09:30.340Z,1.68
2018-04-06T05:11:56.206Z,1.65
2018-04-06T05:14:22.076Z,1.72
2018-04-06T05:16:47.945Z,1.73
2018-04-06T05:19:13.798Z,1.75
2018-04-06T05:21:39.636Z,1.80
2018-04-06T05:24:05.538Z,1.84
2018-04-06T05:26:31.382Z,1.91
2018-04-06T05:28:57.281Z,1.98
2018-04-06T05:31:23.143Z,2.08
2018-04-06T05:33:48.983Z,2.18
2018-04-06T05:36:14.853Z,2.27
2018-04-06T05:38:40.704Z,2.35
2018-04-06T05:41:06.556Z,2.44
2018-04-06T05:43:32.408Z,2.51
2018-04-06T05:45:58.274Z,2.55
2018-04-06T05:48:24.133Z,2.61
2018-04-06T05:50:50.006Z,2.70
2018-04-06T05:53:15.834Z,2.74
2018-04-06T05:55:41.665Z,2.77
2018-04-06T05:58:07.528Z,2.82
2018-04-06T06:00:33.398Z,2.86
2018-04-06T06:02:59.296Z,2.92
2018-04-06T06:05:25.202Z,3.04
2018-04-06T06:07:51.097Z,3.05
2018-04-06T06:10:16.953Z,3.15
2018-04-06T06:12:42.791Z,3.20
2018-04-06T06:15:08.641Z,3.26
2018-04-06T06:17:34.508Z,3.33
2018-04-06T06:20:00.344Z,3.34
2018-04-06T06:22:26.194Z,3.46
2018-04-06T06:24:52.035Z,3.56
2018-04-06T06:27:17.861Z,3.62
2018-04-06T06:29:43.720Z,3.65
2018-04-06T06:32:09.566Z,3.76
2018-04-06T06:34:35.436Z,3.87
2018-04-06T06:37:01.297Z,3.95
2018-04-06T06:39:27.126Z,3.97
2018-04-06T06:41:52.990Z,4.02
2018-04-06T06:44:18.835Z,4.10
2018-04-06T06:46:44.670Z,4.18
2018-04-06T06:49:10.521Z,4.25
2018-04-06T06:51:36.385Z,4.25
2018-04-06T06:54:02.242Z,4.30
2018-04-06T06:56:28.091Z,4.39
2018-04-06T06:58:53.940Z,4.45
2018-04-06T07:01:19.780Z,4.50
2018-04-06T07:03:45.640Z,4.51
2018-04-06T07:06:11.486Z,4.57
2018-04-06T07:08:37.369Z,4.64
2018-04-06T07:11:03.218Z,4.68
2018-04-06T07:13:29.089Z,4.76
2018-04-06T07:15:54.940Z,4.83
2018-04-06T07:21:13.572Z,4.94
2018-04-06T07:23:39.437Z,5.03
2018-04-06T07:26:05.329Z,5.07
2018-04-06T07:28:31.149Z,5.10
2018-04-06T07:30:57.009Z,5.17
2018-04-06T07:33:22.834Z,5.20
2018-04-06T07:35:48.692Z,5.24
2018-04-06T07:38:14.549Z,5.29
2018-04-06T07:40:40.457Z,5.33
2018-04-06T07:43:06.290Z,5.42
2018-04-06T07:45:32.128Z,5.52
2018-04-06T07:47:57.986Z,5.51
2018-04-06T07:50:23.841Z,5.54
2018-04-06T07:52:49.720Z,5.58
2018-04-06T07:55:15.569Z,5.59
2018-04-06T07:57:41.437Z,5.61
2018-04-06T08:00:07.278Z,5.71
2018-04-06T08:02:33.143Z,5.82
2018-04-06T08:04:58.980Z,5.81
2018-04-06T08:07:24.825Z,5.76
2018-04-06T08:09:50.685Z,5.81
2018-04-06T08:12:16.533Z,5.91
2018-04-06T08:14:42.404Z,5.99
2018-04-06T08:17:08.258Z,6.07
2018-04-06T08:19:34.106Z,6.14
2018-04-06T08:21:59.957Z,6.13
2018-04-06T08:24:25.822Z,6.20
2018-04-06T08:26:51.740Z,6.28
2018-04-06T08:29:17.606Z,6.29
2018-04-06T08:31:43.466Z,6.43
2018-04-06T08:34:09.298Z,6.39
2018-04-06T08:36:35.134Z,6.45
2018-04-06T08:39:00.960Z,6.51
2018-04-06T08:41:26.796Z,6.56
2018-04-06T08:43:52.610Z,6.61
2018-04-06T08:46:18.477Z,6.73
2018-04-06T08:48:44.333Z,6.79
2018-04-06T08:51:10.187Z,6.85
2018-04-06T08:53:36.019Z,6.84
2018-04-06T08:56:01.865Z,6.90
2018-04-06T08:58:27.708Z,7.03
2018-04-06T09:00:53.561Z,7.09
2018-04-06T09:03:19.435Z,7.19
2018-04-06T09:05:45.291Z,7.39
2018-04-06T09:08:11.149Z,7.49
2018-04-06T09:10:37.009Z,7.55
2018-04-06T09:13:02.857Z,7.64
2018-04-06T09:15:28.738Z,7.97
2018-04-06T09:17:54.616Z,7.92
2018-04-06T09:20:20.462Z,8.00
2018-04-06T09:22:46.321Z,8.05
2018-04-06T09:25:12.164Z,8.25
2018-04-06T09:27:38.021Z,8.42
2018-04-06T09:30:03.872Z,8.26
2018-04-06T09:32:29.728Z,8.24
2018-04-06T09:34:55.594Z,8.37
2018-04-06T09:37:21.446Z,8.32
2018-04-06T09:39:47.286Z,8.30
2018-04-06T09:42:13.133Z,8.35
2018-04-06T09:44:38.987Z,8.65
2018-04-06T09:47:04.831Z,8.65
2018-04-06T09:49:30.760Z,8.79
2018-04-06T09:51:56.605Z,8.81
2018-04-06T09:54:22.460Z,8.77
2018-04-06T09:56:48.308Z,8.82
2018-04-06T09:59:14.165Z,8.99
2018-04-06T10:01:40.062Z,9.07
2018-04-06T10:04:05.891Z,8.95
2018-04-06T10:06:31.745Z,9.14
2018-04-06T10:08:57.611Z,9.41
2018-04-06T10:11:23.468Z,9.50
2018-04-06T10:13:49.322Z,9.57
2018-04-06T10:16:15.182Z,9.64
2018-04-06T10:18:41.085Z,9.75
2018-04-06T10:21:06.921Z,9.75
2018-04-06T10:23:32.776Z,9.81
2018-04-06T10:25:58.628Z,9.81
2018-04-06T10:28:24.489Z,9.84
2018-04-06T10:30:50.347Z,9.96
2018-04-06T10:33:16.271Z,10.05
2018-04-06T10:35:42.087Z,10.14
2018-04-06T10:38:07.957Z,10.29
2018-04-06T10:40:33.903Z,10.36
2018-04-06T10:42:59.713Z,10.83
2018-04-06T10:45:25.567Z,10.84
2018-04-06T10:47:51.416Z,10.82
2018-04-06T10:50:17.289Z,10.80
2018-04-06T10:52:43.146Z,10.83
2018-04-06T10:55:09.022Z,10.95
2018-04-06T10:57:34.868Z,11.15
2018-04-06T11:00:00.714Z,11.23
2018-04-06T11:02:26.569Z,11.39
2018-04-06T11:04:52.422Z,11.65
2018-04-06T11:07:18.267Z,11.84
2018-04-06T11:09:44.118Z,12.09
2018-04-06T11:12:09.976Z,12.34
2018-04-06T11:14:35.832Z,12.48
2018-04-06T11:17:01.672Z,12.92
2018-04-06T11:19:27.519Z,13.43
2018-04-06T11:21:53.360Z,13.90
2018-04-06T11:24:19.236Z,14.20
2018-04-06T11:26:45.076Z,14.28
2018-04-06T11:29:10.945Z,14.75
2018-04-06T11:31:36.782Z,14.93
2018-04-06T11:34:02.642Z,15.44
2018-04-06T11:36:28.501Z,15.92
2018-04-06T11:38:54.357Z,16.38
2018-04-06T11:41:20.216Z,16.44
2018-04-06T11:43:46.049Z,16.73
2018-04-06T11:46:11.915Z,17.03
2018-04-06T11:48:37.748Z,17.13
2018-04-06T11:51:03.623Z,17.12
2018-04-06T11:53:29.457Z,18.06
2018-04-06T11:55:55.309Z,17.60
2018-04-06T11:58:21.179Z,17.75
2018-04-06T12:00:47.058Z,18.19
2018-04-06T12:03:13.007Z,17.65
2018-04-06T12:05:53.832Z,17.38
2018-04-06T12:08:19.693Z,18.16
2018-04-06T12:10:45.522Z,18.49
2018-04-06T12:13:11.398Z,18.25
2018-04-06T12:15:37.244Z,18.54
2018-04-06T12:18:03.156Z,18.68
2018-04-06T12:20:29.027Z,19.01
2018-04-06T12:22:54.887Z,19.21
2018-04-06T12:25:20.735Z,18.84
2018-04-06T12:27:46.615Z,18.88
2018-04-06T12:30:12.464Z,18.92
2018-04-06T12:32:38.299Z,18.71
2018-04-06T12:35:04.269Z,18.60
2018-04-06T12:37:30.484Z,18.48
2018-04-06T12:39:56.417Z,18.64
2018-04-06T12:42:22.269Z,19.09
2018-04-06T12:44:48.116Z,19.12
2018-04-06T12:47:14.007Z,19.60
2018-04-06T12:49:39.909Z,19.60
2018-04-06T12:52:05.762Z,19.85
2018-04-06T12:54:31.613Z,21.09
2018-04-06T12:56:57.507Z,19.28
2018-04-06T12:59:23.347Z,19.33
2018-04-06T13:01:49.729Z,19.74
2018-04-06T13:04:15.648Z,19.72
2018-04-06T13:06:41.527Z,19.65
2018-04-06T13:09:07.397Z,19.99
2018-04-06T13:11:33.268Z,21.23
2018-04-06T13:13:59.157Z,20.05
2018-04-06T13:16:25.024Z,19.87
2018-04-06T13:18:50.878Z,19.54
2018-04-06T13:21:16.786Z,19.91
2018-04-06T13:23:42.665Z,20.16
2018-04-06T13:26:08.595Z,19.90
2018-04-06T13:28:34.501Z,20.15
2018-04-06T13:31:00.374Z,20.19
2018-04-06T13:33:26.260Z,20.37
2018-04-06T13:35:52.099Z,19.58
2018-04-06T13:38:17.981Z,19.67
2018-04-06T13:40:43.855Z,20.27
2018-04-06T13:43:09.701Z,19.63
2018-04-06T13:45:35.594Z,19.76
2018-04-06T13:48:01.585Z,19.95
2018-04-06T13:50:27.504Z,20.24
2018-04-06T13:52:53.356Z,20.43
2018-04-06T13:55:19.214Z,20.79
2018-04-06T13:57:45.078Z,19.99
2018-04-06T14:00:10.987Z,19.47
2018-04-06T14:02:36.865Z,20.02
2018-04-06T14:05:02.752Z,20.47
2018-04-06T14:07:28.605Z,19.82
2018-04-06T14:09:54.749Z,19.75
2018-04-06T14:12:20.638Z,19.91
2018-04-06T14:14:46.633Z,19.59
2018-04-06T14:17:12.528Z,19.51
2018-04-06T14:19:38.400Z,19.68
2018-04-06T14:22:04.248Z,19.79
2018-04-06T14:24:30.113Z,20.03
2018-04-06T14:26:55.964Z,20.79
2018-04-06T14:29:21.821Z,20.33
2018-04-06T14:31:47.701Z,20.25
2018-04-06T14:34:13.566Z,20.41
2018-04-06T14:36:39.463Z,20.86
2018-04-06T14:39:05.351Z,20.25
2018-04-06T14:41:31.216Z,20.13
2018-04-06T14:43:57.064Z,20.07
2018-04-06T14:46:22.929Z,20.15
2018-04-06T14:48:48.819Z,20.11
2018-04-06T14:51:14.742Z,20.31
2018-04-06T14:53:40.606Z,20.04
2018-04-06T14:56:06.450Z,19.96
2018-04-06T14:58:32.507Z,20.04
2018-04-06T15:00:59.432Z,20.16
2018-04-06T15:03:25.445Z,20.75
2018-04-06T15:05:51.297Z,20.20
2018-04-06T15:08:17.202Z,20.20
2018-04-06T15:10:43.082Z,20.10
2018-04-06T15:13:08.950Z,19.62
2018-04-06T15:15:34.838Z,19.78
2018-04-06T15:18:00.720Z,19.86
2018-04-06T15:20:26.623Z,19.72
2018-04-06T15:22:52.500Z,19.78
2018-04-06T15:25:18.354Z,19.57
2018-04-06T15:27:44.232Z,19.25
2018-04-06T15:30:10.146Z,19.36
2018-04-06T15:32:36.024Z,18.86
2018-04-06T15:35:01.913Z,18.70
2018-04-06T15:37:27.742Z,18.83
2018-04-06T15:42:35.584Z,18.81
2018-04-06T15:45:01.471Z,18.89
2018-04-06T15:47:27.332Z,18.87
2018-04-06T15:49:53.205Z,18.95
2018-04-06T15:52:19.171Z,18.88
2018-04-06T15:54:45.009Z,18.69
2018-04-06T15:57:10.872Z,18.17
2018-04-06T15:59:36.768Z,18.17
2018-04-06T16:02:02.662Z,18.37
2018-04-06T16:04:28.540Z,18.38
2018-04-06T16:06:54.399Z,18.31
2018-04-06T16:09:20.268Z,18.22
2018-04-06T16:11:46.179Z,18.25
2018-04-06T16:14:12.068Z,18.73
2018-04-06T16:16:37.927Z,18.15
2018-04-06T16:19:03.803Z,18.02
2018-04-06T16:21:29.656Z,17.89
2018-04-06T16:23:55.567Z,17.88
2018-04-06T16:26:21.418Z,17.83
2018-04-06T16:28:47.254Z,18.08
2018-04-06T16:31:13.193Z,17.87
2018-04-06T16:33:39.073Z,17.91
2018-04-06T16:36:04.933Z,17.88
2018-04-06T16:38:30.778Z,18.09
2018-04-06T16:40:56.626Z,18.51
2018-04-06T16:43:22.510Z,18.03
2018-04-06T16:45:48.352Z,18.64
2018-04-06T16:48:14.244Z,18.36
2018-04-06T16:50:40.188Z,18.41
2018-04-06T16:53:06.421Z,18.34
2018-04-06T16:55:32.288Z,17.52
2018-04-06T16:57:58.182Z,16.86
2018-04-06T17:00:24.089Z,16.54
2018-04-06T17:02:49.935Z,16.38
2018-04-06T17:05:15.817Z,16.53
2018-04-06T17:07:41.721Z,16.09
2018-04-06T17:10:08.215Z,15.63
2018-04-06T17:12:34.071Z,15.43
2018-04-06T17:15:00.522Z,15.43
2018-04-06T17:17:26.382Z,14.93
2018-04-06T17:19:52.309Z,14.78
2018-04-06T17:22:18.270Z,14.57
2018-04-06T17:24:59.287Z,14.40
2018-04-06T17:27:25.221Z,14.24
2018-04-06T17:29:51.104Z,14.14
2018-04-06T17:32:17.024Z,13.99
2018-04-06T17:34:42.932Z,13.79
2018-04-06T17:37:09.078Z,13.63
2018-04-06T17:39:34.963Z,13.51
2018-04-06T17:42:00.840Z,13.32
2018-04-06T17:44:26.720Z,13.13
2018-04-06T17:46:52.626Z,13.14
2018-04-06T17:49:18.558Z,13.02
2018-04-06T17:51:44.493Z,12.95
2018-04-06T17:54:10.640Z,12.86
2018-04-06T17:56:36.543Z,12.83
2018-04-06T17:59:02.405Z,12.72
2018-04-06T18:01:28.331Z,12.62
2018-04-06T18:03:54.934Z,12.59
2018-04-06T18:06:20.807Z,12.39
2018-04-06T18:08:46.734Z,12.47
2018-04-06T18:11:12.734Z,12.35
2018-04-06T18:13:38.699Z,12.31
2018-04-06T18:16:04.622Z,12.27
2018-04-06T18:18:31.168Z,12.16
2018-04-06T18:20:57.080Z,12.14
2018-04-06T18:23:23.035Z,12.04
2018-04-06T18:25:48.943Z,11.97
2018-04-06T18:28:14.831Z,11.82
2018-04-06T18:30:40.742Z,11.78
2018-04-06T18:33:06.629Z,11.65
2018-04-06T18:35:32.540Z,11.61
2018-04-06T18:37:58.428Z,11.47
2018-04-06T18:40:24.351Z,11.40
2018-04-06T18:42:50.227Z,11.42
2018-04-06T18:45:16.083Z,11.35
2018-04-06T18:47:42.586Z,11.36
2018-04-06T18:50:08.477Z,11.30
2018-04-06T18:52:34.394Z,11.27
2018-04-06T18:55:00.310Z,11.23
2018-04-06T18:57:26.393Z,11.15
2018-04-06T18:59:52.300Z,11.11
2018-04-06T19:02:18.348Z,11.00
2018-04-06T19:04:44.320Z,10.95
2018-04-06T19:07:10.294Z,10.96
2018-04-06T19:09:52.031Z,10.88
2018-04-06T19:12:18.742Z,10.85
2018-04-06T19:14:44.717Z,10.75
2018-04-06T19:17:10.588Z,10.68
2018-04-06T19:19:36.544Z,10.57
2018-04-06T19:22:02.555Z,10.58
2018-04-06T19:24:28.629Z,10.59
2018-04-06T19:26:54.595Z,10.51
2018-04-06T19:29:20.517Z,10.43
2018-04-06T19:31:46.467Z,10.37
2018-04-06T19:34:12.460Z,10.28
2018-04-06T19:36:39.224Z,10.29
2018-04-06T19:39:05.182Z,10.28
2018-04-06T19:41:32.089Z,10.20
2018-04-06T19:43:58.090Z,10.14
2018-04-06T19:46:24.587Z,10.08
2018-04-06T19:48:51.386Z,9.84
2018-04-06T19:51:17.312Z,9.63
2018-04-06T19:53:43.205Z,9.59
2018-04-06T19:56:09.495Z,9.42
2018-04-06T19:58:36.172Z,9.37
2018-04-06T20:01:02.110Z,9.30
2018-04-06T20:03:27.999Z,9.32
2018-04-06T20:05:53.898Z,9.36
2018-04-06T20:08:19.820Z,9.30
2018-04-06T20:10:45.783Z,9.26
2018-04-06T20:13:11.978Z,9.25
2018-04-06T20:15:37.844Z,9.30
2018-04-06T20:18:03.811Z,9.34
2018-04-06T20:20:29.764Z,9.33
2018-04-06T20:22:55.692Z,9.36
2018-04-06T20:25:21.590Z,9.32
2018-04-06T20:27:47.442Z,9.22
2018-04-06T20:30:13.401Z,8.95
2018-04-06T20:32:39.275Z,8.81
2018-04-06T20:35:05.261Z,8.70
2018-04-06T20:37:31.168Z,8.56
2018-04-06T20:39:57.026Z,8.47
2018-04-06T20:42:22.891Z,8.37
2018-04-06T20:44:48.783Z,8.30
2018-04-06T20:47:14.717Z,8.20
2018-04-06T20:52:33.347Z,8.14
2018-04-06T20:54:59.227Z,8.16
2018-04-06T20:57:25.174Z,8.09
2018-04-06T20:59:51.089Z,8.07
2018-04-06T21:02:17.008Z,7.97
2018-04-06T21:04:42.903Z,7.89
2018-04-06T21:07:08.834Z,7.82
2018-04-06T21:09:35.557Z,7.68
2018-04-06T21:12:02.418Z,7.62
2018-04-06T21:14:28.347Z,7.59
2018-04-06T21:16:54.241Z,7.57
2018-04-06T21:19:20.157Z,7.55
2018-04-06T21:21:46.070Z,7.52
2018-04-06T21:24:11.941Z,7.46
2018-04-06T21:26:37.829Z,7.38
2018-04-06T21:29:03.709Z,7.35
2018-04-06T21:31:29.598Z,7.38
2018-04-06T21:33:55.523Z,7.22
2018-04-06T21:36:21.386Z,7.20
2018-04-06T21:38:47.257Z,7.18
2018-04-06T21:41:13.137Z,7.17
2018-04-06T21:43:39.002Z,7.13
2018-04-06T21:46:04.936Z,7.12
2018-04-06T21:48:30.859Z,7.34
2018-04-06T21:50:56.736Z,7.26
2018-04-06T21:53:22.596Z,7.15
2018-04-06T21:55:48.522Z,7.10
2018-04-06T21:58:14.448Z,7.03
2018-04-06T22:00:40.325Z,6.92
2018-04-06T22:03:06.206Z,6.93
2018-04-06T22:05:32.047Z,6.97
2018-04-06T22:07:57.939Z,6.81
2018-04-06T22:10:23.837Z,6.67
2018-04-06T22:12:49.710Z,6.67
2018-04-06T22:15:15.580Z,6.58
2018-04-06T22:17:41.442Z,6.59
2018-04-06T22:20:07.291Z,6.76
2018-04-06T22:22:33.157Z,6.64
2018-04-06T22:24:59.008Z,6.64
2018-04-06T22:27:24.851Z,6.62
2018-04-06T22:29:50.716Z,6.71
2018-04-06T22:32:16.569Z,7.04
2018-04-06T22:34:42.408Z,7.24
2018-04-06T22:37:08.269Z,7.30
2018-04-06T22:39:34.108Z,7.45
2018-04-06T22:41:59.971Z,7.55
2018-04-06T22:44:25.817Z,7.53
2018-04-06T22:46:51.686Z,7.54
2018-04-06T22:49:17.541Z,7.58
2018-04-06T22:51:43.389Z,7.64
2018-04-06T22:54:09.281Z,7.74
2018-04-06T22:56:35.114Z,7.86
2018-04-06T22:59:00.999Z,7.97
2018-04-06T23:01:26.847Z,8.22
2018-04-06T23:03:52.701Z,8.36
2018-04-06T23:06:18.576Z,8.37
2018-04-06T23:08:44.422Z,8.30
2018-04-06T23:11:10.292Z,8.41
2018-04-06T23:13:36.136Z,8.55
2018-04-06T23:16:01.982Z,8.61
2018-04-06T23:18:27.836Z,8.62
2018-04-06T23:20:53.701Z,8.63
2018-04-06T23:23:19.536Z,8.68
2018-04-06T23:25:45.390Z,8.76
2018-04-06T23:28:11.284Z,8.74
2018-04-06T23:30:37.140Z,8.73
2018-04-06T23:33:03.031Z,8.69
2018-04-06T23:35:28.875Z,8.64
2018-04-06T23:37:54.726Z,8.59
2018-04-06T23:40:20.604Z,8.59
2018-04-06T23:42:46.450Z,8.63
2018-04-06T23:45:12.322Z,8.66
2018-04-06T23:47:38.163Z,8.64
2018-04-06T23:50:04.023Z,8.71
2018-04-06T23:52:29.877Z,8.80
2018-04-06T23:54:55.739Z,8.83
2018-04-06T23:57:21.592Z,8.88
2018-04-06T23:59:47.449Z,8.82
